createdAt,value
2018-03-17T00:02:12.468Z,25.52
2018-03-17T00:04:40.052Z,24.27
2018-03-17T00:07:07.663Z,28.45
2018-03-17T00:09:35.286Z,31.42
2018-03-17T00:12:03.374Z,24.45
2018-03-17T00:14:30.988Z,26.52
2018-03-17T00:16:58.615Z,23.60
2018-03-17T00:19:26.219Z,27.33
2018-03-17T00:21:53.880Z,28.55
2018-03-17T00:24:21.455Z,28.83
2018-03-17T00:26:49.022Z,23.98
2018-03-17T00:29:16.664Z,30.95
2018-03-17T00:31:44.263Z,29.42
2018-03-17T00:34:12.638Z,31.45
2018-03-17T00:36:40.283Z,24.98
2018-03-17T00:39:07.888Z,21.85
2018-03-17T00:41:35.504Z,23.30
2018-03-17T00:44:03.111Z,24.10
2018-03-17T00:46:30.760Z,26.65
2018-03-17T00:48:58.363Z,25.80
2018-03-17T00:51:25.964Z,24.60
2018-03-17T00:53:58.403Z,27.70
2018-03-17T00:56:26.007Z,27.08
2018-03-17T00:58:53.609Z,24.60
2018-03-17T01:01:21.224Z,27.73
2018-03-17T01:03:48.824Z,29.55
2018-03-17T01:06:16.419Z,26.50
2018-03-17T01:08:44.052Z,33.55
2018-03-17T01:11:11.625Z,30.50
2018-03-17T01:13:39.190Z,30.08
2018-03-17T01:16:06.806Z,27.92
2018-03-17T01:18:34.453Z,31.58
2018-03-17T01:21:02.012Z,31.30
2018-03-17T01:23:29.661Z,36.72
2018-03-17T01:25:57.312Z,35.22
2018-03-17T01:28:25.647Z,32.28
2018-03-17T01:30:53.248Z,34.55
2018-03-17T01:33:21.611Z,33.65
2018-03-17T01:35:49.231Z,35.28
2018-03-17T01:38:17.413Z,38.17
2018-03-17T01:40:45.865Z,32.45
2018-03-17T01:43:13.489Z,33.50
2018-03-17T01:45:41.109Z,29.23
2018-03-17T01:48:08.708Z,29.63
2018-03-17T01:50:36.329Z,34.65
2018-03-17T01:53:03.948Z,24.52
2018-03-17T01:55:32.344Z,28.12
2018-03-17T01:57:59.962Z,28.62
2018-03-17T02:00:27.835Z,27.77
2018-03-17T02:02:55.420Z,29.90
2018-03-17T02:05:23.066Z,27.95
2018-03-17T02:07:53.413Z,34.00
2018-03-17T02:10:21.823Z,31.00
2018-03-17T02:12:49.458Z,30.80
2018-03-17T02:15:17.077Z,29.75
2018-03-17T02:17:44.691Z,31.75
2018-03-17T02:20:12.275Z,31.65
2018-03-17T02:22:39.863Z,41.97
2018-03-17T02:25:07.487Z,38.92
2018-03-17T02:27:35.115Z,42.67
2018-03-17T02:30:04.267Z,38.20
2018-03-17T02:32:31.884Z,44.90
2018-03-17T02:34:59.505Z,38.17
2018-03-17T02:37:27.156Z,41.15
2018-03-17T02:39:54.739Z,39.10
2018-03-17T02:42:23.080Z,37.05
2018-03-17T02:44:50.697Z,33.70
2018-03-17T02:47:18.297Z,36.97
2018-03-17T02:49:45.931Z,32.13
2018-03-17T02:52:13.537Z,45.20
2018-03-17T02:54:41.180Z,43.10
2018-03-17T02:57:08.814Z,40.00
2018-03-17T02:59:36.442Z,42.90
2018-03-17T03:02:04.822Z,42.17
2018-03-17T03:04:33.227Z,42.55
2018-03-17T03:07:00.806Z,38.33
2018-03-17T03:09:28.468Z,38.60
2018-03-17T03:11:56.076Z,41.42
2018-03-17T03:14:23.656Z,40.35
2018-03-17T03:16:51.292Z,37.92
2018-03-17T03:19:18.879Z,37.00
2018-03-17T03:21:46.517Z,44.42
2018-03-17T03:24:14.100Z,50.05
2018-03-17T03:26:41.696Z,41.97
2018-03-17T03:29:09.335Z,51.67
2018-03-17T03:31:36.889Z,52.62
2018-03-17T03:34:04.533Z,50.47
2018-03-17T03:36:32.907Z,53.58
2018-03-17T03:39:02.236Z,43.08
2018-03-17T03:41:29.845Z,51.65
2018-03-17T03:43:57.422Z,55.47
2018-03-17T03:46:25.078Z,56.08
2018-03-17T03:48:53.488Z,51.17
2018-03-17T03:51:21.123Z,48.22
2018-03-17T03:53:48.747Z,52.90
2018-03-17T03:56:16.344Z,56.72
2018-03-17T03:58:43.914Z,53.45
2018-03-17T04:01:12.255Z,48.55
2018-03-17T04:03:39.867Z,56.45
2018-03-17T04:06:07.449Z,49.65
2018-03-17T04:08:35.114Z,47.70
2018-03-17T04:11:02.772Z,49.75
2018-03-17T04:13:30.404Z,44.28
2018-03-17T04:15:58.776Z,43.33
2018-03-17T04:18:27.148Z,38.33
2018-03-17T04:20:55.539Z,39.83
2018-03-17T04:23:23.944Z,43.55
2018-03-17T04:25:51.538Z,43.60
2018-03-17T04:28:19.151Z,45.75
2018-03-17T04:30:46.763Z,43.15
2018-03-17T04:33:14.344Z,36.70
2018-03-17T04:35:42.736Z,34.05
2018-03-17T04:38:11.083Z,33.58
2018-03-17T04:40:38.682Z,27.85
2018-03-17T04:43:06.298Z,27.55
2018-03-17T04:45:33.869Z,26.25
2018-03-17T04:48:02.479Z,29.60
2018-03-17T04:50:30.827Z,27.42
2018-03-17T04:52:58.441Z,26.62
2018-03-17T04:55:26.038Z,21.52
2018-03-17T04:57:53.715Z,26.73
2018-03-17T05:00:21.312Z,20.48
2018-03-17T05:02:48.897Z,28.90
2018-03-17T05:05:16.473Z,25.70
2018-03-17T05:07:44.064Z,25.15
2018-03-17T05:10:12.420Z,21.50
2018-03-17T05:12:40.029Z,20.02
2018-03-17T05:15:07.714Z,21.20
2018-03-17T05:17:35.331Z,20.60
2018-03-17T05:20:03.698Z,23.40
2018-03-17T05:22:31.284Z,19.87
2018-03-17T05:25:00.093Z,25.20
2018-03-17T05:27:27.688Z,21.98
2018-03-17T05:29:55.300Z,18.80
2018-03-17T05:32:22.862Z,19.20
2018-03-17T05:34:50.458Z,21.85
2018-03-17T05:37:18.100Z,20.80
2018-03-17T05:39:45.660Z,22.02
2018-03-17T05:42:13.279Z,19.67
2018-03-17T05:44:47.543Z,21.75
2018-03-17T05:47:15.227Z,29.40
2018-03-17T05:49:42.820Z,32.03
2018-03-17T05:52:36.495Z,29.02
2018-03-17T05:55:04.834Z,27.10
2018-03-17T05:57:49.148Z,23.75
2018-03-17T06:00:16.711Z,25.20
2018-03-17T06:02:44.358Z,27.55
2018-03-17T06:05:12.915Z,26.30
2018-03-17T06:07:41.259Z,25.88
2018-03-17T06:10:09.507Z,25.60
2018-03-17T06:12:37.155Z,23.90
2018-03-17T06:15:05.705Z,31.87
2018-03-17T06:17:33.319Z,25.67
2018-03-17T06:20:00.942Z,35.05
2018-03-17T06:22:29.309Z,28.15
2018-03-17T06:25:07.235Z,28.80
2018-03-17T06:30:33.507Z,31.77
2018-03-17T06:33:01.081Z,29.27
2018-03-17T06:35:28.684Z,31.75
2018-03-17T06:37:57.269Z,28.10
2018-03-17T06:40:51.448Z,35.67
2018-03-17T06:43:19.783Z,27.70
2018-03-17T06:45:47.399Z,33.13
2018-03-17T06:48:16.724Z,36.92
2018-03-17T06:50:44.326Z,32.03
2018-03-17T06:53:11.932Z,29.40
2018-03-17T06:58:42.524Z,37.05
2018-03-17T07:01:10.698Z,32.00
2018-03-17T07:03:38.292Z,31.05
2018-03-17T07:06:06.640Z,31.00
2018-03-17T07:08:53.115Z,34.03
2018-03-17T07:11:21.485Z,45.70
2018-03-17T07:13:49.101Z,40.60
2018-03-17T07:16:16.684Z,33.45
2018-03-17T07:18:45.070Z,39.72
2018-03-17T07:21:12.651Z,41.42
2018-03-17T07:23:40.283Z,42.92
2018-03-17T07:26:08.631Z,41.92
2018-03-17T07:28:36.863Z,63.38
2018-03-17T07:31:04.449Z,56.97
2018-03-17T07:33:32.027Z,54.22
2018-03-17T07:35:59.636Z,45.33
2018-03-17T07:38:27.251Z,54.67
2018-03-17T07:41:18.158Z,60.50
2018-03-17T07:43:46.745Z,54.67
2018-03-17T07:46:14.387Z,53.00
2018-03-17T07:48:41.961Z,60.65
2018-03-17T07:51:09.597Z,61.17
2018-03-17T07:53:37.181Z,55.03
2018-03-17T07:56:06.827Z,48.08
2018-03-17T07:58:34.427Z,59.65
2018-03-17T08:01:02.074Z,43.45
2018-03-17T08:03:29.700Z,43.53
2018-03-17T08:09:11.589Z,51.35
2018-03-17T08:11:39.228Z,46.55
2018-03-17T08:14:06.834Z,52.70
2018-03-17T08:16:35.196Z,59.88
2018-03-17T08:19:03.555Z,55.42
2018-03-17T08:21:31.188Z,48.17
2018-03-17T08:23:58.799Z,52.67
2018-03-17T08:26:26.374Z,51.50
2018-03-17T08:28:54.000Z,53.40
2018-03-17T08:31:21.628Z,58.45
2018-03-17T08:33:49.263Z,55.10
2018-03-17T08:36:16.910Z,55.12
2018-03-17T08:38:45.327Z,50.08
2018-03-17T08:41:12.938Z,53.83
2018-03-17T08:43:40.542Z,55.63
2018-03-17T08:46:08.887Z,58.00
2018-03-17T08:48:37.242Z,57.17
2018-03-17T08:51:04.829Z,59.75
2018-03-17T08:53:32.419Z,60.63
2018-03-17T08:56:00.024Z,54.25
2018-03-17T08:58:27.654Z,52.92
2018-03-17T09:00:55.270Z,54.90
2018-03-17T09:03:23.607Z,52.78
2018-03-17T09:05:51.288Z,63.13
2018-03-17T09:08:18.864Z,52.38
2018-03-17T09:10:46.501Z,57.58
2018-03-17T09:13:14.096Z,58.10
2018-03-17T09:15:41.736Z,56.90
2018-03-17T09:18:09.352Z,61.97
2018-03-17T09:20:36.957Z,55.30
2018-03-17T09:23:04.549Z,56.28
2018-03-17T09:25:32.155Z,50.55
2018-03-17T09:27:59.734Z,56.53
2018-03-17T09:30:28.124Z,51.80
2018-03-17T09:32:56.487Z,56.37
2018-03-17T09:35:24.853Z,51.65
2018-03-17T09:37:52.458Z,54.50
2018-03-17T09:40:20.091Z,49.85
2018-03-17T09:42:47.702Z,50.33
2018-03-17T09:45:15.298Z,55.17
2018-03-17T09:47:42.961Z,56.53
2018-03-17T09:50:10.517Z,51.28
2018-03-17T09:52:38.149Z,53.05
2018-03-17T09:55:05.762Z,56.17
2018-03-17T09:57:34.137Z,58.20
2018-03-17T10:00:02.568Z,75.28
2018-03-17T10:02:30.202Z,65.72
2018-03-17T10:04:57.838Z,54.95
2018-03-17T10:07:26.204Z,85.90
2018-03-17T10:09:53.768Z,55.40
2018-03-17T10:12:21.397Z,53.30
2018-03-17T10:14:48.993Z,60.78
2018-03-17T10:17:16.560Z,56.25
2018-03-17T10:20:03.894Z,51.37
2018-03-17T10:22:31.538Z,55.90
2018-03-17T10:25:07.148Z,53.55
2018-03-17T10:27:34.787Z,57.03
2018-03-17T10:30:02.375Z,55.65
2018-03-17T10:32:29.989Z,58.78
2018-03-17T10:34:57.614Z,50.78
2018-03-17T10:37:25.211Z,55.17
2018-03-17T10:39:53.597Z,54.55
2018-03-17T10:42:22.119Z,51.40
2018-03-17T10:44:49.708Z,57.03
2018-03-17T10:47:31.758Z,54.78
2018-03-17T10:49:59.402Z,55.70
2018-03-17T10:52:27.051Z,54.15
2018-03-17T10:54:55.419Z,50.33
2018-03-17T10:57:23.798Z,50.90
2018-03-17T10:59:52.167Z,55.35
2018-03-17T11:02:21.634Z,52.65
2018-03-17T11:04:49.190Z,51.40
2018-03-17T11:07:16.816Z,58.87
2018-03-17T11:09:44.470Z,52.70
2018-03-17T11:12:12.105Z,54.38
2018-03-17T11:14:40.507Z,51.10
2018-03-17T11:17:08.876Z,52.88
2018-03-17T11:19:37.824Z,51.65
2018-03-17T11:22:05.402Z,52.22
2018-03-17T11:24:33.995Z,48.45
2018-03-17T11:30:07.676Z,46.13
2018-03-17T11:38:25.237Z,50.85
2018-03-17T11:40:52.855Z,47.38
2018-03-17T11:43:21.231Z,51.45
2018-03-17T11:45:48.855Z,50.90
2018-03-17T11:48:16.423Z,52.40
2018-03-17T11:50:44.075Z,59.40
2018-03-17T11:53:12.386Z,53.03
2018-03-17T11:58:33.768Z,56.75
2018-03-17T12:01:01.389Z,53.35
2018-03-17T12:03:29.829Z,58.65
2018-03-17T12:05:57.469Z,60.70
2018-03-17T12:08:25.100Z,68.00
2018-03-17T12:10:53.518Z,59.80
2018-03-17T12:13:21.940Z,60.35
2018-03-17T12:15:49.536Z,56.25
2018-03-17T12:18:17.088Z,60.53
2018-03-17T12:20:44.760Z,58.67
2018-03-17T12:23:12.358Z,54.53
2018-03-17T12:25:39.951Z,53.33
2018-03-17T12:28:08.332Z,54.65
2018-03-17T12:30:36.671Z,57.55
2018-03-17T12:33:04.840Z,57.47
2018-03-17T12:35:32.470Z,57.30
2018-03-17T12:38:00.159Z,62.22
2018-03-17T12:40:27.752Z,58.05
2018-03-17T12:42:56.155Z,64.30
2018-03-17T12:45:24.082Z,56.63
2018-03-17T12:47:51.691Z,61.65
2018-03-17T12:50:19.312Z,58.60
2018-03-17T12:52:46.924Z,64.30
2018-03-17T12:55:14.544Z,62.97
2018-03-17T12:57:42.161Z,61.70
2018-03-17T13:00:09.762Z,62.85
2018-03-17T13:02:37.361Z,61.47
2018-03-17T13:05:04.968Z,55.97
2018-03-17T13:07:32.571Z,59.70
2018-03-17T13:10:00.154Z,57.60
2018-03-17T13:12:27.751Z,56.92
2018-03-17T13:14:56.577Z,61.50
2018-03-17T13:17:24.972Z,58.85
2018-03-17T13:19:52.573Z,56.55
2018-03-17T13:22:37.859Z,55.03
2018-03-17T13:25:05.475Z,56.13
2018-03-17T13:27:44.758Z,54.80
2018-03-17T13:30:12.358Z,57.88
2018-03-17T13:32:51.717Z,55.97
2018-03-17T13:35:19.331Z,55.10
2018-03-17T13:37:53.356Z,55.28
2018-03-17T13:40:30.078Z,55.28
2018-03-17T13:42:57.666Z,50.90
2018-03-17T13:45:25.290Z,58.22
2018-03-17T13:47:52.922Z,52.78
2018-03-17T13:50:20.503Z,54.55
2018-03-17T13:52:48.107Z,53.17
2018-03-17T13:55:15.700Z,54.38
2018-03-17T13:57:43.275Z,52.67
2018-03-17T14:00:10.912Z,50.90
2018-03-17T14:02:39.307Z,56.45
2018-03-17T14:05:21.421Z,53.75
2018-03-17T14:07:49.056Z,55.67
2018-03-17T14:10:16.694Z,47.75
2018-03-17T14:12:45.280Z,57.88
2018-03-17T14:15:12.894Z,52.75
2018-03-17T14:17:45.465Z,52.95
2018-03-17T14:20:16.440Z,57.00
2018-03-17T14:22:44.040Z,56.42
2018-03-17T14:25:11.666Z,54.45
2018-03-17T14:27:39.329Z,59.20
2018-03-17T14:30:06.982Z,55.90
2018-03-17T14:32:34.663Z,57.72
2018-03-17T14:35:02.288Z,57.78
2018-03-17T14:37:29.874Z,54.10
2018-03-17T14:39:57.517Z,61.17
2018-03-17T14:42:25.138Z,56.35
2018-03-17T14:44:52.762Z,56.80
2018-03-17T14:47:20.392Z,52.13
2018-03-17T14:49:48.016Z,50.97
2018-03-17T14:52:16.405Z,53.53
2018-03-17T14:54:43.995Z,53.85
2018-03-17T14:57:11.589Z,58.55
2018-03-17T14:59:39.974Z,55.60
2018-03-17T15:02:08.334Z,51.25
2018-03-17T15:04:35.930Z,57.50
2018-03-17T15:07:03.555Z,55.22
2018-03-17T15:09:31.180Z,52.20
2018-03-17T15:11:58.746Z,53.75
2018-03-17T15:14:26.324Z,54.90
2018-03-17T15:16:53.925Z,52.42
2018-03-17T15:19:21.508Z,54.35
2018-03-17T15:21:49.137Z,50.20
2018-03-17T15:24:17.554Z,49.42
2018-03-17T15:26:45.839Z,46.40
2018-03-17T15:29:13.424Z,53.78
2018-03-17T15:31:41.032Z,51.60
2018-03-17T15:34:08.644Z,51.78
2018-03-17T15:36:36.303Z,49.22
2018-03-17T15:39:03.912Z,47.95
2018-03-17T15:41:31.509Z,52.62
2018-03-17T15:43:59.116Z,52.10
2018-03-17T15:46:27.494Z,52.33
2018-03-17T15:48:55.846Z,55.47
2018-03-17T15:51:23.468Z,45.95
2018-03-17T15:53:52.014Z,52.60
2018-03-17T15:56:20.423Z,52.03
2018-03-17T15:58:48.045Z,52.60
2018-03-17T16:01:16.431Z,51.88
2018-03-17T16:03:44.819Z,48.65
2018-03-17T16:06:12.437Z,47.47
2018-03-17T16:08:40.055Z,53.38
2018-03-17T16:11:07.623Z,52.85
2018-03-17T16:13:35.242Z,50.72
2018-03-17T16:16:06.114Z,50.97
2018-03-17T16:18:34.633Z,54.25
2018-03-17T16:21:02.297Z,50.95
2018-03-17T16:23:29.903Z,50.05
2018-03-17T16:26:01.923Z,50.75
2018-03-17T16:28:29.524Z,51.90
2018-03-17T16:30:58.433Z,51.97
2018-03-17T16:33:26.210Z,55.83
2018-03-17T16:36:13.292Z,51.95
2018-03-17T16:38:41.695Z,57.22
2018-03-17T16:41:09.326Z,49.33
2018-03-17T16:43:37.744Z,50.30
2018-03-17T16:46:13.523Z,55.65
2018-03-17T16:48:41.123Z,46.83
2018-03-17T16:51:09.556Z,49.42
2018-03-17T16:53:37.141Z,49.47
2018-03-17T16:56:04.727Z,50.33
2018-03-17T16:58:32.368Z,48.03
2018-03-17T17:00:59.953Z,50.30
2018-03-17T17:03:27.649Z,55.10
2018-03-17T17:05:55.229Z,53.80
2018-03-17T17:08:22.904Z,53.65
2018-03-17T17:10:51.516Z,35.38
2018-03-17T17:13:19.099Z,61.58
2018-03-17T17:15:46.734Z,51.40
2018-03-17T17:18:14.331Z,50.20
2018-03-17T17:20:41.960Z,54.03
2018-03-17T17:23:13.981Z,54.20
2018-03-17T17:25:41.600Z,57.13
2018-03-17T17:28:09.208Z,49.50
2018-03-17T17:30:36.831Z,52.38
2018-03-17T17:33:14.857Z,48.87
2018-03-17T17:35:46.053Z,44.85
2018-03-17T17:38:14.492Z,45.70
2018-03-17T17:40:42.136Z,46.03
2018-03-17T17:43:09.794Z,44.20
2018-03-17T17:45:38.242Z,51.53
2018-03-17T17:48:05.849Z,50.50
2018-03-17T17:50:40.928Z,46.90
2018-03-17T17:53:08.558Z,49.75
2018-03-17T17:55:36.156Z,43.38
2018-03-17T17:58:04.571Z,43.30
2018-03-17T18:00:32.176Z,43.72
2018-03-17T18:02:59.774Z,41.80
2018-03-17T18:05:27.341Z,41.37
2018-03-17T18:07:54.952Z,42.20
2018-03-17T18:10:22.562Z,43.20
2018-03-17T18:12:50.159Z,45.50
2018-03-17T18:15:17.773Z,44.80
2018-03-17T18:17:45.376Z,43.10
2018-03-17T18:20:13.009Z,38.15
2018-03-17T18:22:40.666Z,41.08
2018-03-17T18:25:08.262Z,42.42
2018-03-17T18:27:35.815Z,42.25
2018-03-17T18:30:03.405Z,43.47
2018-03-17T18:32:31.784Z,39.08
2018-03-17T18:35:00.190Z,41.72
2018-03-17T18:37:28.789Z,43.85
2018-03-17T18:39:56.392Z,44.83
2018-03-17T18:42:24.004Z,45.63
2018-03-17T18:44:51.632Z,43.50
2018-03-17T18:47:19.976Z,42.35
2018-03-17T18:49:47.575Z,44.33
2018-03-17T18:52:28.470Z,41.42
2018-03-17T18:54:56.116Z,44.08
2018-03-17T18:57:23.772Z,43.78
2018-03-17T18:59:51.398Z,44.00
2018-03-17T19:02:19.993Z,45.15
2018-03-17T19:04:54.386Z,41.35
2018-03-17T19:07:22.026Z,39.40
2018-03-17T19:09:49.685Z,40.35
2018-03-17T19:12:20.672Z,47.70
2018-03-17T19:14:48.280Z,42.75
2018-03-17T19:17:15.928Z,43.83
2018-03-17T19:19:44.137Z,38.88
2018-03-17T19:22:11.722Z,37.97
2018-03-17T19:24:39.347Z,41.60
2018-03-17T19:27:06.975Z,42.15
2018-03-17T19:29:35.477Z,39.28
2018-03-17T19:32:03.093Z,40.42
2018-03-17T19:34:30.708Z,42.22
2018-03-17T19:36:58.339Z,38.67
2018-03-17T19:39:25.898Z,40.35
2018-03-17T19:41:54.249Z,43.30
2018-03-17T19:44:22.712Z,42.90
2018-03-17T19:46:50.340Z,43.03
2018-03-17T19:49:17.935Z,43.78
2018-03-17T19:51:45.579Z,48.67
2018-03-17T19:54:13.239Z,44.42
2018-03-17T19:56:40.816Z,41.53
2018-03-17T19:59:08.438Z,44.97
2018-03-17T20:01:36.115Z,50.15
2018-03-17T20:04:03.759Z,38.92
2018-03-17T20:06:31.418Z,44.88
2018-03-17T20:08:59.089Z,43.63
2018-03-17T20:11:26.724Z,38.05
2018-03-17T20:13:55.179Z,46.13
2018-03-17T20:16:22.791Z,46.58
2018-03-17T20:18:50.460Z,47.40
2018-03-17T20:21:18.029Z,45.40
2018-03-17T20:23:45.683Z,45.20
2018-03-17T20:26:13.331Z,47.15
2018-03-17T20:28:40.918Z,45.15
2018-03-17T20:31:08.561Z,46.22
2018-03-17T20:33:36.202Z,53.30
2018-03-17T20:36:03.801Z,50.92
2018-03-17T20:38:31.436Z,49.83
2018-03-17T20:40:59.014Z,50.55
2018-03-17T20:43:26.670Z,50.92
2018-03-17T20:45:54.283Z,49.08
2018-03-17T20:48:22.713Z,56.20
2018-03-17T20:50:50.312Z,51.90
2018-03-17T20:53:17.952Z,50.25
2018-03-17T20:55:45.570Z,50.65
2018-03-17T20:58:13.187Z,49.10
2018-03-17T21:00:40.821Z,50.60
2018-03-17T21:03:08.447Z,50.53
2018-03-17T21:05:36.067Z,52.03
2018-03-17T21:08:03.680Z,47.00
2018-03-17T21:10:31.335Z,53.47
2018-03-17T21:12:58.931Z,50.30
2018-03-17T21:15:26.628Z,52.15
2018-03-17T21:17:54.255Z,49.70
2018-03-17T21:20:21.936Z,57.03
2018-03-17T21:22:49.572Z,59.75
2018-03-17T21:25:17.184Z,60.70
2018-03-17T21:27:44.859Z,60.08
2018-03-17T21:30:12.480Z,60.60
2018-03-17T21:32:40.094Z,65.37
2018-03-17T21:35:07.784Z,52.75
2018-03-17T21:37:35.339Z,56.25
2018-03-17T21:40:02.970Z,57.33
2018-03-17T21:42:31.390Z,59.97
2018-03-17T21:44:58.981Z,64.97
2018-03-17T21:47:26.571Z,61.33
2018-03-17T21:49:54.154Z,65.37
2018-03-17T21:52:21.762Z,60.50
2018-03-17T21:54:49.385Z,58.55
2018-03-17T21:57:17.058Z,64.50
2018-03-17T21:59:44.696Z,69.78
2018-03-17T22:02:12.365Z,58.05
2018-03-17T22:04:41.909Z,69.18
2018-03-17T22:07:09.477Z,69.07
2018-03-17T22:09:37.118Z,70.10
2018-03-17T22:12:04.759Z,58.38
2018-03-17T22:14:32.369Z,63.35
2018-03-17T22:17:00.797Z,60.70
2018-03-17T22:19:28.424Z,63.67
2018-03-17T22:21:56.655Z,58.55
2018-03-17T22:24:24.285Z,60.15
2018-03-17T22:26:51.903Z,55.55
2018-03-17T22:29:20.327Z,60.35
2018-03-17T22:31:47.933Z,64.03
2018-03-17T22:34:15.548Z,59.28
2018-03-17T22:36:43.938Z,59.42
2018-03-17T22:39:12.353Z,63.97
2018-03-17T22:41:39.971Z,59.53
2018-03-17T22:44:07.640Z,57.30
2018-03-17T22:46:35.239Z,59.03
2018-03-17T22:49:02.857Z,66.28
2018-03-17T22:51:31.241Z,58.95
2018-03-17T22:53:58.854Z,60.42
2018-03-17T22:56:27.461Z,57.35
2018-03-17T22:58:55.095Z,62.85
2018-03-17T23:01:23.457Z,58.95
2018-03-17T23:03:51.896Z,59.53
2018-03-17T23:06:19.528Z,61.83
2018-03-17T23:08:47.140Z,63.87
2018-03-17T23:11:14.782Z,61.92
2018-03-17T23:13:42.371Z,58.38
2018-03-17T23:16:11.049Z,54.80
2018-03-17T23:18:38.653Z,61.85
2018-03-17T23:21:06.285Z,59.28
2018-03-17T23:23:33.941Z,57.03
2018-03-17T23:26:01.527Z,59.85
2018-03-17T23:28:29.183Z,64.30
2018-03-17T23:30:57.572Z,62.60
2018-03-17T23:33:26.486Z,66.10
2018-03-17T23:35:54.079Z,58.95
2018-03-17T23:38:21.699Z,59.08
2018-03-17T23:40:49.293Z,57.33
2018-03-17T23:43:16.872Z,60.05
2018-03-17T23:45:44.496Z,61.45
2018-03-17T23:48:12.099Z,59.60
2018-03-17T23:50:39.738Z,59.80
2018-03-17T23:53:07.353Z,58.40
2018-03-17T23:55:35.716Z,53.63
2018-03-17T23:58:04.102Z,56.58
